• Join FlightAware (Why Join?)
  • Login
  • US Flag 
06:08AM EDT


 

Airport Tracker/Info


-or-


 

Live Flight TrackerFlight Track Log ✈ AAL1459 ✈ 18-Apr-2013 ✈ KORD - KRNO

Flight Track Log - Related Links

Times and Time Zones

All times are in EDT time to prevent confusion due to time zone crossing. See the AAL1459 flight status page for this flight to view local times or setup timezone preferences in your user account.

Time Position Orientation Groundspeed Altitude Reporting Facility
EDT Latitude Longitude Course Direction KTS MPH feet Rate Location/Type
06:49PM 41.9500 -87.9167 270° West 156 180 2,300  Level Chicago TRACON
06:50PM 41.9500 -88.0000 270° West 237 273 4,400 1,140 Climbing Chicago TRACON
06:52PM 41.9667 -88.3559 270° West  Level FlightAware Approximate
06:52PM 41.9700 -88.1575 280° West 241 277 5,700  Level Chicago Center
06:53PM 41.9667 -88.5078 270° West  Level FlightAware Approximate
06:53PM 41.9789 -88.2533 277° West 256 295 8,700  Level Chicago Center
06:54PM 41.9668 -88.6598 270° West  Level FlightAware Approximate
06:54PM 41.9889 -88.3764 276° West 277 319 11,200  Level Chicago Center
06:55PM 41.9667 -88.8117 270° West  Level FlightAware Approximate
06:56PM 41.9950 -88.4778 275° West 276 318 14,200  Level Chicago Center
06:57PM 42.0431 -88.5586 309° West 295 339 17,100 2,700 Climbing Chicago Center
06:58PM 42.0906 -88.6436 307° West 297 342 19,800 1,860 Climbing Chicago Center
06:59PM 42.0956 -88.7419 274° West 264 304 21,000 1,500 Climbing Chicago Center
07:00PM 42.1028 -88.8569 275° West 269 310 23,000 1,440 Climbing Chicago Center
07:01PM 42.1128 -88.9611 277° West 276 318 24,000 720 Climbing Chicago Center
07:02PM 42.1094 -89.0733 268° West 298 343 24,500 840 Climbing Chicago Center
07:03PM 42.1022 -89.1942 265° West 319 367 25,800 1,260 Climbing Chicago Center
07:04PM 42.0953 -89.3233 266° West 338 389 27,200 1,320 Climbing Chicago Center
07:05PM 42.0897 -89.4567 267° West 350 403 28,600 1,320 Climbing Chicago Center
07:06PM 42.0844 -89.6200 268° West 370 426 30,000 1,200 Climbing Chicago Center
07:07PM 42.0800 -89.7625 268° West 379 436 31,100 1,020 Climbing Chicago Center
07:08PM 42.0747 -89.9072 267° West 386 444 32,100 900 Climbing Chicago Center
07:09PM 42.0744 -90.0564 270° West 400 460 33,000 420 Climbing Chicago Center
07:10PM 42.0828 -90.2094 274° West 410 472 33,000  Level Chicago Center
07:11PM 42.0903 -90.3606 274° West 408 470 33,000  Level Chicago Center
07:12PM 42.0961 -90.5111 273° West 406 467 33,000  Level Chicago Center
07:13PM 42.1036 -90.6914 273° West 405 466 33,000  Level Chicago Center
07:14PM 42.1092 -90.8403 273° West 403 464 33,000 240 Level Chicago Center
07:15PM 42.1144 -90.9869 273° West 398 458 33,500 480 Climbing Chicago Center
07:16PM 42.1200 -91.1378 273° West 400 460 34,000 240 Climbing Chicago Center
07:17PM 42.1242 -91.2917 272° West 408 470 34,000  Level Chicago Center
07:18PM 42.1292 -91.4414 273° West 405 466 34,000  Level Chicago Center
07:19PM 42.1350 -91.5911 273° West 403 464 34,000  Level Chicago Center
07:20PM 42.1403 -91.7714 272° West 402 463 34,000  Level Chicago Center
07:21PM 42.1442 -91.9247 272° West 408 470 34,000  Level Chicago Center
07:22PM 42.1486 -92.0753 272° West 404 465 34,000  Level Chicago Center
07:23PM 42.1519 -92.2000 272° West 407 468 34,000  Level Minneapolis Center
07:24PM 42.1561 -92.3500 272° West 405 466 34,000  Level Minneapolis Center
07:25PM 42.1594 -92.4997 272° West 403 464 34,000  Level Minneapolis Center
07:26PM 42.1625 -92.6486 272° West 401 461 34,000  Level Minneapolis Center
07:27PM 42.1667 -92.7972 272° West 400 460 34,000  Level Minneapolis Center
07:28PM 42.1697 -92.9733 271° West 397 457 34,000  Level Minneapolis Center
07:29PM 42.1719 -93.1239 271° West 400 460 34,000  Level Minneapolis Center
07:30PM 42.1761 -93.2722 272° West 400 460 34,000  Level Minneapolis Center
07:31PM 42.1769 -93.4206 270° West 398 458 34,000  Level Minneapolis Center
07:32PM 42.1803 -93.5697 272° West 401 461 34,000  Level Minneapolis Center
07:33PM 42.1822 -93.7194 271° West 403 464 34,000  Level Minneapolis Center
07:34PM 42.1836 -93.8789 271° West 405 466 34,000  Level Minneapolis Center
07:35PM 42.1864 -94.0628 271° West 408 470 34,000  Level Minneapolis Center
07:36PM 42.1875 -94.2153 271° West 408 470 34,000  Level Minneapolis Center
07:37PM 42.1892 -94.3664 271° West 405 466 34,000  Level Minneapolis Center
07:39PM 42.1900 -94.5186 270° West 406 467 34,000  Level Minneapolis Center
07:40PM 42.1914 -94.6736 271° West 413 475 34,000  Level Minneapolis Center
07:41PM 42.1925 -94.8303 271° West 417 480 34,000  Level Minneapolis Center
07:42PM 42.1917 -94.9844 270° West 415 478 34,000  Level Minneapolis Center
07:43PM 42.1917 -95.1700 270° West 413 475 34,000  Level Minneapolis Center
07:44PM 42.1911 -95.3233 270° West 411 473 34,000  Level Minneapolis Center
07:45PM 42.1917 -95.4781 270° West 412 474 34,000  Level Minneapolis Center
07:46PM 42.1914 -95.6289 270° West 408 470 34,000  Level Minneapolis Center
07:47PM 42.1928 -95.7861 271° West 416 479 34,000  Level Minneapolis Center
07:48PM 42.1942 -95.9400 271° West 414 476 34,000  Level Minneapolis Center
07:49PM 42.1953 -96.1256 271° West 415 478 34,000  Level Minneapolis Center
07:50PM 42.1972 -96.2811 271° West 416 479 34,000  Level Minneapolis Center
07:51PM 42.1972 -96.4411 270° West 423 487 34,000  Level Minneapolis Center
07:52PM 42.1978 -96.5983 270° West 424 488 34,000  Level Minneapolis Center
07:53PM 42.1986 -96.7578 270° West 426 490 34,000  Level Minneapolis Center
07:54PM 42.1986 -96.9178 270° West 426 490 34,000  Level Minneapolis Center
07:55PM 42.1975 -97.1103 270° West 430 495 34,000  Level Minneapolis Center
07:56PM 42.1972 -97.2706 270° West 429 494 34,000  Level Minneapolis Center
07:57PM 42.1969 -97.4314 270° West 431 496 34,000  Level Minneapolis Center
07:58PM 42.1972 -97.5933 270° West 432 497 34,000  Level Minneapolis Center
07:59PM 42.1964 -97.7544 270° West 431 496 34,000  Level Minneapolis Center
08:00PM 42.1936 -97.9342 269° West 433 498 34,000  Level Minneapolis Center
08:01PM 42.1922 -98.0950 269° West 432 497 34,000  Level Minneapolis Center
08:02PM 42.1914 -98.2583 270° West 435 501 34,000  Level Minneapolis Center
08:03PM 42.1897 -98.4206 269° West 434 499 34,000  Level Minneapolis Center
08:04PM 42.1864 -98.5828 268° West 434 499 34,000  Level Minneapolis Center
08:05PM 42.1844 -98.7781 269° West 434 499 34,000  Level Minneapolis Center
08:06PM 42.1819 -98.9392 269° West 433 498 34,000  Level Minneapolis Center
08:07PM 42.1781 -99.1014 268° West 433 498 34,000  Level Minneapolis Center
08:08PM 42.1756 -99.2647 269° West 436 502 34,000  Level Minneapolis Center
08:09PM 42.1722 -99.4278 268° West 436 502 34,000  Level Minneapolis Center
08:10PM 42.1689 -99.5892 268° West 434 499 34,000  Level Minneapolis Center
08:11PM 42.1658 -99.7531 269° West 436 502 34,000  Level Minneapolis Center
08:12PM 42.1619 -99.8139 265° West 436 502 34,000  Level Denver Center
08:13PM 42.1583 -99.9706 268° West 439 505 34,000  Level Denver Center
08:14PM 42.1531 -100.1528 268° West 438 504 34,000  Level Denver Center
08:15PM 42.1489 -100.3097 268° West 439 505 34,000  Level Denver Center
08:16PM 42.1433 -100.4906 268° West 436 502 34,000  Level Denver Center
08:17PM 42.1392 -100.6467 268° West 436 502 34,000  Level Denver Center
08:18PM 42.1322 -100.8275 267° West 435 501 34,000  Level Denver Center
08:19PM 42.1278 -100.9822 268° West 434 499 34,000  Level Denver Center
08:20PM 42.1206 -101.1669 267° West 441 507 34,000  Level Denver Center
08:21PM 42.1150 -101.3244 267° West 442 509 34,000  Level Denver Center
08:22PM 42.1078 -101.5078 267° West 441 507 34,000  Level Denver Center
08:23PM 42.1014 -101.6675 267° West 445 512 34,000  Level Denver Center
08:24PM 42.0944 -101.8544 267° West 448 516 34,000  Level Denver Center
08:25PM 42.0872 -102.0128 267° West 445 512 34,000  Level Denver Center
08:26PM 42.0786 -102.1986 266° West 446 513 34,000  Level Denver Center
08:27PM 42.0692 -102.3564 265° West 446 513 34,000  Level Denver Center
08:28PM 42.0611 -102.5403 267° West 443 510 34,000  Level Denver Center
08:29PM 42.0533 -102.6997 266° West 445 512 34,000  Level Denver Center
08:30PM 42.0458 -102.8586 266° West 445 512 34,000  Level Denver Center
08:31PM 42.0364 -103.0453 266° West 446 513 34,000  Level Denver Center
08:32PM 42.0267 -103.2086 265° West 454 522 34,000  Level Denver Center
08:33PM 42.0169 -103.3967 266° West 453 521 34,000  Level Denver Center
08:34PM 42.0075 -103.5583 266° West 452 520 34,000  Level Denver Center
08:35PM 41.9958 -103.7461 265° West 452 520 34,000 240 Level Denver Center
08:36PM 41.9869 -103.9072 266° West 452 520 34,600 720 Climbing Denver Center
08:38PM 41.9772 -104.0686 265° West 451 519 35,500 660 Climbing Denver Center
08:39PM 41.9653 -104.2586 265° West 455 524 36,000 240 Climbing Denver Center
08:40PM 41.9544 -104.4214 265° West 455 524 36,000  Level Denver Center
08:41PM 41.9422 -104.6114 265° West 456 525 36,000  Level Denver Center
08:42PM 41.9333 -104.7478 265° West 457 526 36,000  Level Denver Center
08:43PM 41.9183 -104.9606 265° West 449 517 36,000  Level Denver Center
08:44PM 41.9069 -105.1192 265° West 445 512 36,000  Level Denver Center
08:45PM 41.8956 -105.2767 265° West 443 510 36,000  Level Denver Center
08:46PM 41.8828 -105.4603 265° West 442 509 36,000  Level Denver Center
08:47PM 41.8703 -105.6189 264° West 446 513 36,000  Level Denver Center
08:48PM 41.8553 -105.8022 264° West 443 510 36,000  Level Denver Center
08:49PM 41.8447 -105.9586 265° West 440 506 36,000  Level Denver Center
08:50PM 41.8297 -106.1414 264° West 441 507 36,000  Level Denver Center
08:51PM 41.8153 -106.2981 263° West 442 509 36,000  Level Denver Center
08:52PM 41.8028 -106.4583 264° West 449 517 36,000  Level Denver Center
08:53PM 41.7883 -106.6367 264° West 445 512 36,000  Level Denver Center
08:54PM 41.7767 -106.7922 264° West 441 507 36,000  Level Denver Center
08:55PM 41.7589 -106.9719 263° West 437 503 36,000  Level Denver Center
08:56PM 41.7456 -107.1292 264° West 442 509 36,000  Level Denver Center
08:57PM 41.7292 -107.3106 263° West 442 509 36,000  Level Denver Center
08:58PM 41.7153 -107.4672 263° West 443 510 36,000  Level Denver Center
08:59PM 41.6983 -107.6506 263° West 444 511 36,000  Level Denver Center
09:00PM 41.6842 -107.8064 263° West 442 509 36,000  Level Denver Center
09:01PM 41.6667 -107.9872 263° West 440 506 36,000  Level Denver Center
09:02PM 41.6519 -108.1422 263° West 442 509 36,000  Level Denver Center
09:03PM 41.6447 -108.1950 260° West 442 509 36,000  Level Salt Lake Center
09:04PM 41.6269 -108.3753 263° West 440 506 36,000  Level Salt Lake Center
09:05PM 41.6122 -108.5294 263° West 439 505 36,000  Level Salt Lake Center
09:06PM 41.5944 -108.7097 263° West 439 505 36,000  Level Salt Lake Center
09:07PM 41.5789 -108.8619 262° West 436 502 36,000  Level Salt Lake Center
09:08PM 41.5592 -109.0406 262° West 439 505 36,000  Level Salt Lake Center
09:09PM 41.5431 -109.1911 262° West 440 506 36,000  Level Salt Lake Center
09:10PM 41.5239 -109.3678 262° West 438 504 36,000  Level Salt Lake Center
09:11PM 41.5067 -109.5208 262° West 438 504 36,000  Level Salt Lake Center
09:12PM 41.4864 -109.7000 261° West 440 506 36,000  Level Salt Lake Center
09:13PM 41.4689 -109.8539 261° West 440 506 36,000  Level Salt Lake Center
09:14PM 41.4514 -110.0078 261° West 440 506 36,000  Level Salt Lake Center
09:15PM 41.4308 -110.1889 261° West 444 511 36,000  Level Salt Lake Center
09:16PM 41.4125 -110.3444 261° West 444 511 36,000  Level Salt Lake Center
09:17PM 41.3903 -110.5286 261° West 452 520 36,000  Level Salt Lake Center
09:18PM 41.3714 -110.6869 261° West 454 522 36,000  Level Salt Lake Center
09:19PM 41.3514 -110.8453 260° West 454 522 36,000  Level Salt Lake Center
09:20PM 41.3306 -111.0156 261° West 454 522 36,000  Level Salt Lake Center
09:21PM 41.3103 -111.1794 261° West 452 520 36,000  Level Salt Lake Center
09:22PM 41.2856 -111.3753 261° West 452 520 36,000  Level Salt Lake Center
09:23PM 41.2650 -111.5361 260° West 446 513 36,000  Level Salt Lake Center
09:24PM 41.2436 -111.6967 260° West 447 514 36,000  Level Salt Lake Center
09:25PM 41.2233 -111.8569 261° West 449 517 36,000  Level Salt Lake Center
09:26PM 41.2019 -112.0172 260° West 451 519 36,000  Level Salt Lake Center
09:27PM 41.1797 -112.1786 260° West 451 519 36,000  Level Salt Lake Center
09:28PM 41.1539 -112.3736 260° West 450 518 36,000  Level Salt Lake Center
09:29PM 41.1311 -112.5369 260° West 450 518 36,000  Level Salt Lake Center
09:30PM 41.1086 -112.6994 260° West 451 519 36,000  Level Salt Lake Center
09:31PM 41.0861 -112.8631 260° West 452 520 36,000  Level Salt Lake Center
09:32PM 41.0625 -113.0278 259° West 455 524 36,000  Level Salt Lake Center
09:33PM 41.0403 -113.1906 260° West 452 520 36,000  Level Salt Lake Center
09:34PM 41.0147 -113.3511 258° West 447 514 36,000  Level Salt Lake Center
09:35PM 40.9906 -113.5131 259° West 449 517 36,000  Level Salt Lake Center
09:36PM 40.9633 -113.7072 260° West 448 516 36,000  Level Salt Lake Center
09:37PM 40.9389 -113.8694 259° West 451 519 36,000  Level Salt Lake Center
09:38PM 40.9142 -114.0303 259° West 449 517 36,000  Level Salt Lake Center
09:39PM 40.8894 -114.1925 259° West 450 518 36,000  Level Salt Lake Center
09:40PM 40.8647 -114.3547 259° West 452 520 36,000  Level Salt Lake Center
09:42PM 40.8358 -114.5325 258° West 454 522 36,000  Level Salt Lake Center
09:43PM 40.8119 -114.6908 259° West 457 526 36,000  Level Salt Lake Center
09:44PM 40.7889 -114.8453 259° West 452 520 36,000  Level Salt Lake Center
09:45PM 40.7586 -115.0256 258° West 450 518 36,000  Level Salt Lake Center
09:46PM 40.7333 -115.1786 258° West 448 516 36,000  Level Salt Lake Center
09:47PM 40.7039 -115.3564 258° West 445 512 36,000  Level Salt Lake Center
09:48PM 40.6764 -115.5086 257° West 445 512 36,000  Level Salt Lake Center
09:49PM 40.6528 -115.6614 259° West 446 513 36,000  Level Salt Lake Center
09:50PM 40.6233 -115.8394 258° West 445 512 36,000  Level Salt Lake Center
09:51PM 40.5969 -115.9928 257° West 447 514 36,000  Level Salt Lake Center
09:52PM 40.5675 -116.1722 258° West 449 517 36,000  Level Salt Lake Center
09:53PM 40.5394 -116.3264 257° West 452 520 36,000  Level Salt Lake Center
09:54PM 40.5092 -116.5042 257° West 447 514 36,000  Level Salt Lake Center
09:55PM 40.4831 -116.6558 257° West 447 514 36,000  Level Salt Lake Center
09:56PM 40.4569 -116.8019 257° West 447 514 36,000  Level Salt Lake Center
09:57PM 40.4222 -116.9878 256° West 440 506 36,000  Level Salt Lake Center
09:58PM 40.3947 -117.1486 257° West 444 511 36,000  Level Salt Lake Center
09:59PM 40.3672 -117.2972 256° West 440 506 36,000  Level Salt Lake Center
10:00PM 40.3164 -117.4394 245° Southwest 452 520 36,000  Level Salt Lake Center
10:01PM 40.2422 -117.5981 239° Southwest 458 527 36,000  Level Salt Lake Center
10:02PM 40.1792 -117.7364 239° Southwest 461 531 36,000 -180 Level Salt Lake Center
10:03PM 40.1039 -117.8936 238° Southwest 458 527 35,700 -660 Descending Salt Lake Center
10:04PM 40.0478 -118.0164 239° Southwest 451 519 34,700 -1,080 Descending Salt Lake Center
10:05PM 39.9692 -118.1831 238° Southwest 450 518 33,600 -1,080 Descending Salt Lake Center
10:06PM 39.9050 -118.3208 239° Southwest 447 514 32,600 -900 Descending Salt Lake Center
10:07PM 39.8383 -118.4603 238° Southwest 450 518 31,700 -1,140 Descending Oakland Center
10:08PM 39.7592 -118.6247 238° Southwest 451 519 30,200 -1,980 Descending Oakland Center
10:09PM 39.6950 -118.7581 238° Southwest 443 510 27,700 -2,400 Descending Oakland Center
10:10PM 39.6328 -118.8878 238° Southwest 431 496 25,400 -2,280 Descending Oakland Center
10:11PM 39.5722 -119.0136 238° Southwest 421 484 23,100 -2,220 Descending Oakland Center
10:12PM 39.5128 -119.1361 238° Southwest 407 468 20,900 -2,100 Descending Oakland Center
10:14PM 39.4017 -119.3706 239° Southwest 384 442 16,700 -2,340 Descending Oakland Center
10:15PM 39.3419 -119.5083 241° Southwest 366 421 13,900 -2,580 Descending Oakland Center
10:16PM 39.2947 -119.6214 242° Southwest 359 413 11,500 -1,740 Descending Oakland Center
10:17PM 39.2358 -119.7122 230° Southwest 340 391 10,400 -840 Descending Oakland Center
10:18PM 39.2661 -119.7853 298° West 304 350 9,800 -960 Descending Oakland Center
10:20PM 39.3339 -119.7656 13° North 263 303 8,500 -1,740 Descending Oakland Center
10:20PM 39.3833 -119.7667 359° North 216 249 6,800 -2,340 Descending Northern Cal TRACON